createdAt,value
2022-09-15T00:01:59.758Z,3.17
2022-09-15T00:07:03.663Z,2.53
2022-09-15T00:12:07.520Z,3.07
2022-09-15T00:17:12.538Z,3.03
2022-09-15T00:22:16.232Z,3.03
2022-09-15T00:27:19.974Z,2.90
2022-09-15T00:32:24.974Z,3.27
2022-09-15T00:37:28.497Z,2.37
2022-09-15T00:42:32.215Z,2.97
2022-09-15T00:47:39.787Z,2.80
2022-09-15T00:52:47.820Z,2.50
2022-09-15T00:57:54.994Z,2.73
2022-09-15T01:03:00.125Z,2.47
2022-09-15T01:08:06.798Z,2.80
2022-09-15T01:13:12.792Z,2.73
2022-09-15T01:18:27.091Z,2.77
2022-09-15T01:24:08.782Z,3.37
2022-09-15T01:29:52.889Z,3.23
2022-09-15T01:35:03.518Z,2.97
2022-09-15T01:40:09.939Z,2.90
2022-09-15T01:45:20.739Z,2.73
2022-09-15T01:50:27.701Z,3.30
2022-09-15T01:55:37.998Z,3.17
2022-09-15T02:00:47.072Z,2.90
2022-09-15T02:06:01.981Z,2.60
2022-09-15T02:11:14.722Z,3.13
2022-09-15T02:16:24.773Z,2.77
2022-09-15T02:21:33.965Z,2.90
2022-09-15T02:26:41.596Z,3.03
2022-09-15T02:31:48.301Z,2.67
2022-09-15T02:36:54.269Z,2.97
2022-09-15T02:41:59.627Z,2.67
2022-09-15T02:47:05.040Z,2.50
2022-09-15T02:52:08.633Z,2.97
2022-09-15T02:57:13.850Z,2.80
2022-09-15T03:02:20.365Z,2.50
2022-09-15T03:07:24.830Z,3.13
2022-09-15T03:12:28.985Z,2.50
2022-09-15T03:17:36.878Z,2.57
2022-09-15T03:22:40.831Z,2.80
2022-09-15T03:27:44.534Z,2.97
2022-09-15T03:32:49.572Z,3.00
2022-09-15T03:37:53.172Z,3.10
2022-09-15T03:42:56.994Z,3.13
2022-09-15T03:48:02.065Z,4.40
2022-09-15T03:53:05.636Z,3.67
2022-09-15T03:58:09.308Z,3.77
2022-09-15T04:03:14.755Z,3.77
2022-09-15T04:08:18.404Z,4.20
2022-09-15T04:13:26.702Z,3.97
2022-09-15T04:18:33.798Z,4.43
2022-09-15T04:23:37.470Z,4.10
2022-09-15T04:28:41.256Z,4.90
2022-09-15T04:33:47.671Z,3.70
2022-09-15T04:38:52.382Z,3.90
2022-09-15T04:43:56.659Z,4.27
2022-09-15T04:49:01.713Z,4.07
2022-09-15T04:54:05.555Z,3.97
2022-09-15T04:59:16.045Z,3.70
2022-09-15T05:04:21.180Z,3.90
2022-09-15T05:09:26.265Z,3.73
2022-09-15T05:14:29.983Z,3.60
2022-09-15T05:19:35.078Z,3.40
2022-09-15T05:24:38.616Z,3.23
2022-09-15T05:29:42.140Z,3.37
2022-09-15T05:34:47.036Z,3.37
2022-09-15T05:39:50.680Z,2.83
2022-09-15T05:44:54.257Z,2.73
2022-09-15T05:49:59.177Z,2.83
2022-09-15T05:55:02.821Z,2.87
2022-09-15T06:00:07.384Z,3.00
2022-09-15T06:05:16.947Z,3.03
2022-09-15T06:10:22.635Z,2.77
2022-09-15T06:15:26.723Z,2.33
2022-09-15T06:20:31.638Z,2.00
2022-09-15T06:25:35.284Z,2.40
2022-09-15T06:30:40.441Z,2.70
2022-09-15T06:35:45.375Z,2.10
2022-09-15T06:40:56.284Z,2.07
2022-09-15T06:46:04.306Z,2.23
2022-09-15T06:51:12.486Z,2.10
2022-09-15T06:56:17.884Z,2.33
2022-09-15T07:01:23.126Z,2.00
2022-09-15T07:06:29.838Z,2.33
2022-09-15T07:11:33.699Z,2.67
2022-09-15T07:16:37.304Z,2.53
2022-09-15T07:21:42.262Z,2.80
2022-09-15T07:26:45.899Z,2.50
2022-09-15T07:31:50.546Z,3.27
2022-09-15T07:36:55.519Z,3.23
2022-09-15T07:41:59.074Z,3.60
2022-09-15T07:47:02.674Z,4.67
2022-09-15T07:52:07.523Z,4.67
2022-09-15T07:57:11.053Z,4.57
2022-09-15T08:02:18.219Z,5.47
2022-09-15T08:07:23.281Z,4.60
2022-09-15T08:12:26.812Z,4.60
2022-09-15T08:17:30.368Z,3.83
2022-09-15T08:22:35.660Z,4.27
2022-09-15T08:27:40.746Z,4.10
2022-09-15T08:32:44.585Z,4.07
2022-09-15T08:37:49.477Z,3.33
2022-09-15T08:42:56.625Z,3.60
2022-09-15T08:48:03.978Z,4.03
2022-09-15T08:53:13.166Z,3.90
2022-09-15T08:58:19.093Z,3.57
2022-09-15T09:03:58.905Z,3.07
2022-09-15T09:09:16.255Z,3.00
2022-09-15T09:14:26.048Z,2.77
2022-09-15T09:20:00.201Z,3.13
2022-09-15T09:25:25.771Z,2.93
2022-09-15T09:30:33.313Z,3.20
2022-09-15T09:35:42.963Z,2.57
2022-09-15T09:40:48.103Z,2.53
2022-09-15T09:45:52.333Z,2.60
2022-09-15T09:50:56.250Z,2.10
2022-09-15T09:56:19.192Z,1.80
2022-09-15T10:01:25.760Z,1.97
2022-09-15T10:06:31.795Z,1.73
2022-09-15T10:11:44.505Z,2.10
2022-09-15T10:16:58.726Z,1.60
2022-09-15T10:22:04.129Z,1.30
2022-09-15T10:27:18.319Z,1.20
2022-09-15T10:32:27.472Z,1.30
2022-09-15T10:37:36.060Z,1.37
2022-09-15T10:42:51.878Z,1.60
2022-09-15T10:48:08.921Z,1.63
2022-09-15T10:53:20.937Z,1.60
2022-09-15T10:58:46.908Z,2.20
2022-09-15T11:04:06.289Z,2.50
2022-09-15T11:09:16.601Z,1.47
2022-09-15T11:14:33.535Z,1.73
2022-09-15T11:19:56.204Z,1.50
2022-09-15T11:25:03.545Z,1.20
2022-09-15T11:30:16.614Z,1.00
2022-09-15T11:35:43.853Z,0.90
2022-09-15T11:40:51.931Z,0.80
2022-09-15T11:46:00.277Z,0.70
2022-09-15T11:51:06.080Z,0.50
2022-09-15T11:56:19.797Z,0.60
2022-09-15T12:01:28.579Z,0.60
2022-09-15T12:06:37.962Z,0.50
2022-09-15T12:11:45.058Z,0.30
2022-09-15T12:16:50.534Z,0.50
2022-09-15T12:22:01.402Z,0.60
2022-09-15T12:27:05.402Z,0.50
2022-09-15T12:32:24.575Z,0.67
2022-09-15T12:37:35.507Z,0.70
2022-09-15T12:42:39.056Z,0.60
2022-09-15T12:47:51.349Z,0.50
2022-09-15T12:52:58.576Z,0.57
2022-09-15T12:58:08.423Z,0.40
2022-09-15T13:08:52.012Z,0.67
2022-09-15T13:14:07.832Z,0.60
2022-09-15T13:19:16.193Z,0.60
2022-09-15T13:24:27.993Z,0.50
2022-09-15T13:29:33.142Z,0.57
2022-09-15T13:35:13.062Z,0.60
2022-09-15T13:40:57.938Z,0.60
2022-09-15T13:46:15.505Z,0.40
2022-09-15T13:51:26.093Z,0.60
2022-09-15T13:56:35.552Z,0.50
2022-09-15T14:01:39.808Z,0.43
2022-09-15T14:06:45.956Z,0.57
2022-09-15T14:11:55.087Z,0.57
2022-09-15T14:16:58.809Z,0.50
2022-09-15T14:22:03.911Z,0.60
2022-09-15T14:27:11.664Z,0.63
2022-09-15T14:32:17.301Z,0.50
2022-09-15T14:37:23.888Z,0.40
2022-09-15T14:42:32.450Z,0.50
2022-09-15T14:47:36.259Z,0.60
2022-09-15T14:52:42.220Z,0.40
2022-09-15T14:57:51.777Z,0.60
2022-09-15T15:03:14.881Z,0.40
2022-09-15T15:08:29.109Z,0.50
2022-09-15T15:13:34.534Z,0.50
2022-09-15T15:18:40.753Z,0.40
2022-09-15T15:23:47.148Z,0.30
2022-09-15T15:28:52.148Z,0.40
2022-09-15T15:33:59.317Z,0.40
2022-09-15T15:39:05.947Z,0.30
2022-09-15T15:44:28.384Z,0.50
2022-09-15T15:49:33.178Z,0.30
2022-09-15T15:54:36.717Z,0.40
2022-09-15T15:59:41.520Z,0.30
2022-09-15T16:04:45.031Z,0.40
2022-09-15T16:09:49.640Z,0.40
2022-09-15T16:14:54.486Z,0.40
2022-09-15T16:19:57.976Z,0.40
2022-09-15T16:25:01.543Z,0.30
2022-09-15T16:30:08.306Z,0.30
2022-09-15T16:35:25.329Z,0.30
2022-09-15T16:40:28.926Z,0.40
2022-09-15T16:45:39.788Z,0.40
2022-09-15T16:51:01.712Z,0.50
2022-09-15T16:56:12.369Z,0.30
2022-09-15T17:01:19.719Z,0.30
2022-09-15T17:06:23.441Z,0.40
2022-09-15T17:11:27.741Z,0.40
2022-09-15T17:16:32.669Z,0.30
2022-09-15T17:21:36.290Z,0.40
2022-09-15T17:26:40.235Z,0.30
2022-09-15T17:31:45.128Z,0.40
2022-09-15T17:36:48.697Z,0.40
2022-09-15T17:41:52.314Z,0.47
2022-09-15T17:46:57.198Z,0.40
2022-09-15T17:52:00.732Z,0.40
2022-09-15T17:57:05.439Z,0.40
2022-09-15T18:02:19.128Z,0.37
2022-09-15T18:07:23.670Z,0.40
2022-09-15T18:12:27.479Z,0.40
2022-09-15T18:17:32.321Z,0.30
2022-09-15T18:22:35.935Z,0.40
2022-09-15T18:27:39.482Z,0.40
2022-09-15T18:32:45.049Z,0.40
2022-09-15T18:37:50.140Z,0.43
2022-09-15T18:42:54.131Z,0.70
2022-09-15T18:47:59.153Z,0.30
2022-09-15T18:53:02.620Z,0.40
2022-09-15T18:58:06.137Z,0.50
2022-09-15T19:03:10.998Z,0.40
2022-09-15T19:08:15.465Z,0.40
2022-09-15T19:13:18.954Z,0.50
2022-09-15T19:18:23.849Z,0.60
2022-09-15T19:23:27.345Z,0.40
2022-09-15T19:28:31.536Z,0.40
2022-09-15T19:33:37.792Z,0.43
2022-09-15T19:38:41.273Z,0.40
2022-09-15T19:43:44.888Z,0.50
2022-09-15T19:48:50.302Z,0.50
2022-09-15T19:53:55.882Z,0.40
2022-09-15T19:59:00.075Z,0.53
2022-09-15T20:04:05.545Z,0.40
2022-09-15T20:09:09.437Z,0.50
2022-09-15T20:14:13.190Z,0.60
2022-09-15T20:19:18.098Z,0.33
2022-09-15T20:24:23.565Z,0.40
2022-09-15T20:29:27.162Z,0.50
2022-09-15T20:34:32.041Z,0.43
2022-09-15T20:39:35.756Z,0.50
2022-09-15T20:44:39.344Z,0.40
2022-09-15T20:49:44.220Z,0.33
2022-09-15T20:54:47.715Z,0.30
2022-09-15T20:59:51.199Z,0.40
2022-09-15T21:04:56.036Z,0.30
2022-09-15T21:09:59.607Z,0.37
2022-09-15T21:15:03.703Z,0.40
2022-09-15T21:20:10.184Z,0.30
2022-09-15T21:25:13.701Z,0.40
2022-09-15T21:30:18.083Z,0.40
2022-09-15T21:35:23.117Z,0.50
2022-09-15T21:40:26.762Z,0.23
2022-09-15T21:45:31.324Z,0.33
2022-09-15T21:50:36.279Z,0.40
2022-09-15T21:55:39.769Z,0.50
2022-09-15T22:00:43.397Z,0.30
2022-09-15T22:05:49.761Z,0.30
2022-09-15T22:11:00.126Z,0.30
2022-09-15T22:16:04.353Z,0.30
2022-09-15T22:21:11.145Z,0.30
2022-09-15T22:26:17.769Z,0.33
2022-09-15T22:31:22.974Z,0.30
2022-09-15T22:36:30.380Z,0.20
2022-09-15T22:41:35.911Z,0.30
2022-09-15T22:46:39.570Z,0.27
2022-09-15T22:51:45.222Z,0.27
2022-09-15T22:56:48.717Z,0.60
2022-09-15T23:01:52.492Z,0.20
2022-09-15T23:06:57.367Z,0.30
2022-09-15T23:12:00.983Z,0.30
2022-09-15T23:17:04.628Z,0.30
2022-09-15T23:22:09.527Z,0.40
2022-09-15T23:27:13.129Z,0.30
2022-09-15T23:32:17.063Z,0.30
2022-09-15T23:37:21.960Z,0.30
2022-09-15T23:42:25.507Z,0.30
2022-09-15T23:47:29.007Z,0.30
2022-09-15T23:52:33.857Z,0.30
2022-09-15T23:57:37.346Z,0.30
